Share

Gobabeb, Namibia

3:32 PM WAT on April 23, 2014 (GMT +0100)
Walvis Bay (FYWB) Elev 299 ft | 22.98 °S, 14.65 °E | Change Station

Current weather conditions updated 32 minutes ago

Clear
Clear
72 °F
Feels Like 72 °F
N
9
Wind Variable Wind from WSW
Gusts mph
Sunrise 6:16 AM
Sunset 5:39 PM
Moon Waning Crescent

Today is forecast to be Cooler than yesterday.

Pressure 29.92 in
Visibility -9999.0 miles
Clouds
Dew Point 52 °F
Humidity 50%
Rainfall 0.00 in
Snow Depth Not available.
UV Not available.
Pollen Not available.
Air Quality Not available.
Flu Activity Not available.
METAR FYWB 231400Z AUTO 24008KT //// // ////// 22/11 Q1013

More Conditions Fewer Conditions

Pressure 29.92 in
Visibility -9999.0 miles
Clouds
Dew Point 52 °F
Humidity 50%
Rainfall 0.00 in
Snow Depth Not available.
UV Not available.
Pollen Not available.
Air Quality Not available.
Flu Activity Not available.
METAR FYWB 231400Z AUTO 24008KT //// // ////// 22/11 Q1013

More Conditions Fewer Conditions

10-Day Weather Forecast

Almanac

Astronomy

Apr. 23, 2014 Rise Set
Actual Time 6:16 AM WAT 5:39 PM WAT
Civil Twilight 5:53 AM WAT 6:02 PM WAT
Nautical Twilight 5:27 AM WAT 6:28 PM WAT
Astronomical Twilight 5:00 AM WAT 6:55 PM WAT
Moon 12:24 AM WAT 1:31 PM WAT
Length of Visible Light 12h 08m
Length of Day
11h 22m
Tomorrow will be 1m 12s shorter.
Waning Crescent, 36% of the Moon is Illuminated
Today
Waning Crescent
Apr 29
New
May 6
First Quarter
May 14
Full
May 21
Last Quarter

Today's Extremes

Country Highs Country Lows

Community

  • spring flowers
    spring flowers
  • Earth Day Spectrum Ove' Blue
    Earth Day Spectrum Ove' Blue
  • BARN B&W
    BARN B&W
  • April Sunset
    April Sunset
  • Waiting..
    Waiting..

WunderPhotos

Upload Photos

1,704,296 photos uploaded!

Nearby

Snow Depth

Not available.

Coastal Water Temperatures

Place Temperature
No Stations Reporting

Earthquake Activity

City Distance Mag. Time & Date
No recent earthquake activity has been reported nearby.
Minimum magnitude displayed is 2.5.

Nearby Weather Stations

There are no personal weather stations in this area.

What do you think?

We're not finished. Please let us know what you like, what you don't like, and what you are still missing.